createdAt,value
2022-08-19T00:01:30.217Z,97506.06
2022-08-19T00:03:59.203Z,97506.97
2022-08-19T00:06:27.324Z,97501.78
2022-08-19T00:09:08.595Z,97505.94
2022-08-19T00:11:42.017Z,97500.75
2022-08-19T00:14:13.700Z,97505.19
2022-08-19T00:16:42.538Z,97497.56
2022-08-19T00:19:10.377Z,97493.81
2022-08-19T00:21:40.545Z,97483.50
2022-08-19T00:24:09.521Z,97489.75
2022-08-19T00:26:37.256Z,97477.59
2022-08-19T00:29:05.443Z,97471.31
2022-08-19T00:31:36.448Z,97472.72
2022-08-19T00:36:50.409Z,97477.97
2022-08-19T00:39:18.010Z,97478.25
2022-08-19T00:41:48.613Z,97477.16
2022-08-19T00:44:28.481Z,97469.19
2022-08-19T00:46:58.768Z,97470.50
2022-08-19T00:49:28.736Z,97460.63
2022-08-19T00:52:02.685Z,97473.16
2022-08-19T00:54:41.966Z,97475.31
2022-08-19T00:57:18.063Z,97478.31
2022-08-19T01:00:00.516Z,97485.69
2022-08-19T01:02:30.444Z,97483.50
2022-08-19T01:04:57.892Z,97491.59
2022-08-19T01:07:27.289Z,97473.91
2022-08-19T01:09:55.229Z,97471.19
2022-08-19T01:12:28.621Z,97476.41
2022-08-19T01:15:00.918Z,97468.50
2022-08-19T01:20:35.339Z,97472.63
2022-08-19T01:23:03.410Z,97474.19
2022-08-19T01:25:47.861Z,97471.47
2022-08-19T01:28:32.217Z,97470.88
2022-08-19T01:31:08.141Z,97476.63
2022-08-19T01:33:37.922Z,97475.53
2022-08-19T01:36:23.511Z,97468.94
2022-08-19T01:38:50.737Z,97471.63
2022-08-19T01:41:18.916Z,97458.19
2022-08-19T01:46:38.439Z,97461.66
2022-08-19T01:49:06.753Z,97464.00
2022-08-19T01:51:39.948Z,97458.16
2022-08-19T01:54:08.865Z,97453.44
2022-08-19T01:56:35.800Z,97457.72
2022-08-19T01:59:08.370Z,97445.88
2022-08-19T02:01:43.253Z,97441.75
2022-08-19T02:04:23.274Z,97438.06
2022-08-19T02:07:22.147Z,97436.56
2022-08-19T02:09:49.737Z,97440.44
2022-08-19T02:12:17.438Z,97446.22
2022-08-19T02:14:44.796Z,97442.31
2022-08-19T02:17:11.868Z,97431.47
2022-08-19T02:19:59.164Z,97438.56
2022-08-19T02:22:29.505Z,97441.19
2022-08-19T02:24:56.811Z,97432.00
2022-08-19T02:27:24.787Z,97437.25
2022-08-19T02:29:57.662Z,97444.22
2022-08-19T02:32:30.030Z,97452.28
2022-08-19T02:34:59.362Z,97446.72
2022-08-19T02:37:44.751Z,97430.50
2022-08-19T02:40:15.286Z,97427.72
2022-08-19T02:42:47.037Z,97430.84
2022-08-19T02:45:21.561Z,97427.34
2022-08-19T02:47:59.795Z,97425.22
2022-08-19T02:50:30.102Z,97430.19
2022-08-19T02:53:00.301Z,97420.69
2022-08-19T02:55:27.057Z,97426.63
2022-08-19T02:57:53.889Z,97426.03
2022-08-19T03:00:20.718Z,97423.03
2022-08-19T03:02:48.074Z,97426.41
2022-08-19T03:05:14.990Z,97428.78
2022-08-19T03:07:41.950Z,97425.66
2022-08-19T03:10:09.229Z,97429.22
2022-08-19T03:12:38.848Z,97426.69
2022-08-19T03:15:08.555Z,97429.25
2022-08-19T03:17:36.476Z,97432.28
2022-08-19T03:20:08.017Z,97442.00
2022-08-19T03:22:37.431Z,97445.66
2022-08-19T03:25:10.062Z,97443.94
2022-08-19T03:27:36.879Z,97431.81
2022-08-19T03:30:07.068Z,97438.28
2022-08-19T03:32:41.678Z,97433.72
2022-08-19T03:35:12.839Z,97424.78
2022-08-19T03:37:42.412Z,97421.00
2022-08-19T03:40:17.433Z,97425.97
2022-08-19T03:42:51.073Z,97422.78
2022-08-19T03:47:42.812Z,97426.34
2022-08-19T03:50:10.211Z,97432.50
2022-08-19T03:52:37.553Z,97440.44
2022-08-19T03:55:04.906Z,97440.91
2022-08-19T03:57:32.346Z,97442.97
2022-08-19T04:00:13.256Z,97444.41
2022-08-19T04:03:00.269Z,97443.88
2022-08-19T04:05:30.452Z,97448.75
2022-08-19T04:08:00.439Z,97455.97
2022-08-19T04:10:29.287Z,97442.38
2022-08-19T04:12:56.345Z,97457.19
2022-08-19T04:15:23.165Z,97452.13
2022-08-19T04:17:50.104Z,97462.06
2022-08-19T04:20:17.200Z,97464.63
2022-08-19T04:22:44.099Z,97463.50
2022-08-19T04:25:11.496Z,97475.38
2022-08-19T04:27:44.277Z,97488.25
2022-08-19T04:30:11.478Z,97497.47
2022-08-19T04:32:38.162Z,97504.34
2022-08-19T04:35:17.527Z,97501.59
2022-08-19T04:37:46.241Z,97489.94
2022-08-19T04:40:34.587Z,97492.47
2022-08-19T04:43:02.176Z,97482.72
2022-08-19T04:45:29.482Z,97488.47
2022-08-19T04:48:27.163Z,97471.00
2022-08-19T04:50:59.603Z,97473.09
2022-08-19T04:53:29.760Z,97476.59
2022-08-19T04:56:21.618Z,97456.44
2022-08-19T04:58:48.754Z,97455.53
2022-08-19T05:01:20.551Z,97454.34
2022-08-19T05:03:47.571Z,97459.94
2022-08-19T05:06:16.259Z,97463.06
2022-08-19T06:08:34.549Z,97474.78
2022-08-19T06:11:19.686Z,97471.78
2022-08-19T06:13:48.682Z,97481.22
2022-08-19T06:16:21.959Z,97485.69
2022-08-19T06:18:49.477Z,97495.94
2022-08-19T06:21:16.134Z,97492.28
2022-08-19T06:23:42.678Z,97497.41
2022-08-19T06:26:13.344Z,97505.88
2022-08-19T06:28:43.834Z,97496.25
2022-08-19T06:31:10.822Z,97501.84
2022-08-19T06:33:38.446Z,97510.28
2022-08-19T06:36:05.605Z,97511.31
2022-08-19T06:38:34.763Z,97507.59
2022-08-19T06:41:07.392Z,97510.09
2022-08-19T06:43:34.303Z,97504.69
2022-08-19T06:46:02.174Z,97504.25
2022-08-19T06:48:28.768Z,97508.59
2022-08-19T06:50:55.576Z,97502.38
2022-08-19T06:53:22.267Z,97500.09
2022-08-19T06:56:03.358Z,97497.91
2022-08-19T06:58:33.704Z,97497.16
2022-08-19T07:01:08.528Z,97500.81
2022-08-19T07:03:37.903Z,97506.38
2022-08-19T07:06:26.575Z,97512.53
2022-08-19T07:08:59.218Z,97513.78
2022-08-19T07:11:26.130Z,97509.00
2022-08-19T07:13:54.161Z,97515.06
2022-08-19T07:16:28.871Z,97515.16
2022-08-19T07:18:57.645Z,97509.91
2022-08-19T07:21:29.457Z,97515.88
2022-08-19T07:24:01.883Z,97509.75
2022-08-19T07:26:34.257Z,97504.09
2022-08-19T07:29:02.559Z,97505.97
2022-08-19T07:31:31.115Z,97492.75
2022-08-19T07:33:58.050Z,97492.00
2022-08-19T07:36:33.162Z,97485.69
2022-08-19T07:39:04.054Z,97491.69
2022-08-19T07:41:32.420Z,97506.13
2022-08-19T07:44:04.570Z,97506.09
2022-08-19T07:49:35.011Z,97511.41
2022-08-19T07:52:06.168Z,97516.72
2022-08-19T07:54:38.920Z,97519.16
2022-08-19T07:57:06.803Z,97520.09
2022-08-19T07:59:33.980Z,97524.78
2022-08-19T08:02:01.622Z,97517.09
2022-08-19T08:04:48.510Z,97526.28
2022-08-19T08:07:35.596Z,97526.66
2022-08-19T08:10:08.563Z,97536.31
2022-08-19T08:13:09.306Z,97545.22
2022-08-19T08:15:42.130Z,97552.09
2022-08-19T08:18:09.384Z,97539.75
2022-08-19T08:20:36.212Z,97555.63
2022-08-19T08:23:21.976Z,97561.19
2022-08-19T08:25:50.049Z,97559.56
2022-08-19T08:28:18.121Z,97555.56
2022-08-19T08:30:47.344Z,97561.19
2022-08-19T08:35:43.354Z,97555.19
2022-08-19T08:38:10.028Z,97554.41
2022-08-19T08:40:54.600Z,97552.56
2022-08-19T08:43:34.758Z,97552.31
2022-08-19T08:46:30.745Z,97545.31
2022-08-19T08:49:16.816Z,97558.97
2022-08-19T08:51:48.555Z,97549.03
2022-08-19T08:54:30.050Z,97545.41
2022-08-19T08:56:59.765Z,97546.22
2022-08-19T08:59:33.560Z,97545.44
2022-08-19T09:02:01.345Z,97575.69
2022-08-19T09:04:28.977Z,97566.50
2022-08-19T09:07:26.464Z,97569.81
2022-08-19T09:10:18.979Z,97562.78
2022-08-19T09:12:52.220Z,97570.84
2022-08-19T09:15:33.396Z,97567.38
2022-08-19T09:18:07.242Z,97567.03
2022-08-19T09:20:34.115Z,97575.88
2022-08-19T09:23:00.801Z,97572.31
2022-08-19T09:25:29.696Z,97572.31
2022-08-19T09:28:03.109Z,97576.31
2022-08-19T09:30:38.406Z,97571.53
2022-08-19T09:33:06.208Z,97567.84
2022-08-19T09:35:33.022Z,97565.72
2022-08-19T09:38:17.039Z,97568.84
2022-08-19T09:40:43.597Z,97557.56
2022-08-19T09:43:13.391Z,97569.94
2022-08-19T09:45:43.980Z,97567.97
2022-08-19T09:50:36.050Z,97561.22
2022-08-19T09:53:02.812Z,97550.38
2022-08-19T09:55:31.589Z,97552.75
2022-08-19T09:58:02.810Z,97556.63
2022-08-19T10:00:31.249Z,97539.81
2022-08-19T10:02:57.897Z,97552.88
2022-08-19T10:05:43.348Z,97550.28
2022-08-19T10:08:13.292Z,97545.94
2022-08-19T10:10:46.307Z,97558.03
2022-08-19T10:13:14.327Z,97550.84
2022-08-19T10:15:45.038Z,97550.34
2022-08-19T10:18:14.529Z,97552.53
2022-08-19T10:20:42.833Z,97559.78
2022-08-19T10:23:10.304Z,97539.13
2022-08-19T10:25:38.424Z,97542.84
2022-08-19T10:28:10.736Z,97543.63
2022-08-19T10:30:37.818Z,97544.41
2022-08-19T10:33:10.992Z,97536.75
2022-08-19T10:35:42.603Z,97538.50
2022-08-19T10:38:09.558Z,97534.06
2022-08-19T10:40:36.908Z,97548.03
2022-08-19T10:43:03.495Z,97539.59
2022-08-19T10:45:30.167Z,97532.41
2022-08-19T10:47:56.922Z,97538.41
2022-08-19T10:50:42.331Z,97531.56
2022-08-19T10:53:09.743Z,97530.75
2022-08-19T10:55:55.217Z,97527.97
2022-08-19T10:58:26.411Z,97533.47
2022-08-19T11:00:55.980Z,97536.19
2022-08-19T11:03:24.664Z,97524.88
2022-08-19T11:06:12.021Z,97522.84
2022-08-19T11:08:39.101Z,97528.78
2022-08-19T11:11:07.209Z,97521.22
2022-08-19T11:13:38.658Z,97521.31
2022-08-19T11:16:08.884Z,97522.06
2022-08-19T11:18:40.039Z,97508.47
2022-08-19T11:21:13.250Z,97513.31
2022-08-19T11:23:39.850Z,97512.72
2022-08-19T11:26:09.092Z,97519.53
2022-08-19T11:28:35.876Z,97514.69
2022-08-19T11:31:04.398Z,97523.00
2022-08-19T11:33:34.051Z,97500.72
2022-08-19T11:36:01.811Z,97513.50
2022-08-19T11:38:28.495Z,97496.50
2022-08-19T11:41:00.447Z,97502.81
2022-08-19T11:43:28.236Z,97509.81
2022-08-19T11:45:59.107Z,97510.94
2022-08-19T11:51:32.567Z,97507.53
2022-08-19T11:54:00.870Z,97508.34
2022-08-19T11:56:28.745Z,97510.84
2022-08-19T11:58:57.817Z,97509.56
2022-08-19T12:01:26.626Z,97507.09
2022-08-19T12:03:56.092Z,97505.41
2022-08-19T12:06:28.371Z,97507.84
2022-08-19T12:08:58.927Z,97513.91
2022-08-19T12:11:26.747Z,97507.97
2022-08-19T12:13:53.594Z,97507.94
2022-08-19T12:16:27.757Z,97507.88
2022-08-19T12:18:56.513Z,97502.31
2022-08-19T12:21:26.138Z,97485.09
2022-08-19T12:23:55.770Z,97488.63
2022-08-19T12:26:23.765Z,97481.88
2022-08-19T12:28:50.301Z,97481.56
2022-08-19T12:31:17.433Z,97471.19
2022-08-19T12:33:45.778Z,97469.22
2022-08-19T12:36:16.475Z,97486.00
2022-08-19T12:38:45.115Z,97456.91
2022-08-19T12:41:15.398Z,97456.88
2022-08-19T12:43:42.947Z,97460.44
2022-08-19T12:46:11.576Z,97455.25
2022-08-19T12:48:42.964Z,97444.91
2022-08-19T12:51:12.039Z,97454.94
2022-08-19T12:53:39.596Z,97451.72
2022-08-19T12:56:08.947Z,97456.09
2022-08-19T12:58:39.270Z,97464.16
2022-08-19T13:01:11.795Z,97465.72
2022-08-19T13:03:40.776Z,97465.25
2022-08-19T13:06:08.395Z,97463.22
2022-08-19T13:08:35.473Z,97465.63
2022-08-19T13:11:14.075Z,97468.81
2022-08-19T13:13:43.174Z,97477.63
2022-08-19T13:16:12.146Z,97473.63
2022-08-19T13:18:40.450Z,97464.38
2022-08-19T13:21:14.314Z,97461.94
2022-08-19T13:23:41.988Z,97459.91
2022-08-19T13:26:10.585Z,97461.38
2022-08-19T13:28:55.802Z,97454.25
2022-08-19T13:31:43.249Z,97458.66
2022-08-19T13:34:10.021Z,97458.97
2022-08-19T13:36:40.359Z,97460.56
2022-08-19T13:39:09.426Z,97464.97
2022-08-19T13:44:19.635Z,97464.72
2022-08-19T13:46:48.563Z,97459.94
2022-08-19T14:02:57.753Z,97452.28
2022-08-19T14:05:26.120Z,97463.78
2022-08-19T14:07:53.567Z,97457.75
2022-08-19T14:10:21.946Z,97465.22
2022-08-19T14:12:48.864Z,97468.28
2022-08-19T14:15:16.122Z,97474.63
2022-08-19T14:17:45.439Z,97462.25
2022-08-19T14:20:17.799Z,97459.41
2022-08-19T14:22:47.028Z,97459.88
2022-08-19T14:25:22.566Z,97455.91
2022-08-19T14:27:49.830Z,97450.69
2022-08-19T14:30:20.966Z,97453.03
2022-08-19T14:32:47.870Z,97460.22
2022-08-19T14:35:16.187Z,97453.03
2022-08-19T14:37:46.199Z,97450.69
2022-08-19T14:40:15.387Z,97445.03
2022-08-19T14:42:42.908Z,97449.84
2022-08-19T14:45:11.066Z,97444.63
2022-08-19T14:47:39.924Z,97445.38
2022-08-19T14:50:10.614Z,97439.78
2022-08-19T14:52:44.754Z,97434.56
2022-08-19T14:55:11.462Z,97432.09
2022-08-19T14:57:38.126Z,97443.06
2022-08-19T15:00:05.471Z,97443.06
2022-08-19T15:02:34.806Z,97427.84
2022-08-19T15:05:02.889Z,97438.09
2022-08-19T15:07:30.411Z,97436.81
2022-08-19T15:09:58.042Z,97442.28
2022-08-19T15:12:25.215Z,97445.88
2022-08-19T15:14:55.092Z,97445.00
2022-08-19T15:17:25.730Z,97438.56
2022-08-19T15:20:10.986Z,97439.72
2022-08-19T15:22:38.580Z,97442.38
2022-08-19T15:25:07.822Z,97447.03
2022-08-19T15:27:35.634Z,97445.81
2022-08-19T15:30:02.656Z,97450.50
2022-08-19T15:32:30.543Z,97443.34
2022-08-19T15:34:57.453Z,97440.94
2022-08-19T15:37:24.817Z,97433.03
2022-08-19T15:39:51.743Z,97422.88
2022-08-19T15:42:30.111Z,97438.72
2022-08-19T15:45:00.726Z,97434.31
2022-08-19T15:47:35.144Z,97425.06
2022-08-19T15:53:45.242Z,97430.88
2022-08-19T15:56:12.503Z,97434.81
2022-08-19T15:59:00.791Z,97431.16
2022-08-19T16:01:47.774Z,97422.69
2022-08-19T16:07:15.065Z,97423.22
2022-08-19T16:09:49.636Z,97424.25
2022-08-19T16:12:17.073Z,97426.16
2022-08-19T16:14:43.746Z,97428.41
2022-08-19T16:17:12.719Z,97431.19
2022-08-19T16:19:40.569Z,97427.19
2022-08-19T16:22:07.345Z,97421.94
2022-08-19T16:24:34.089Z,97406.66
2022-08-19T16:27:01.676Z,97407.69
2022-08-19T16:29:33.721Z,97395.97
2022-08-19T16:32:02.921Z,97387.59
2022-08-19T16:34:30.326Z,97392.53
2022-08-19T16:36:56.963Z,97390.06
2022-08-19T16:39:23.851Z,97393.84
2022-08-19T16:41:51.752Z,97395.50
2022-08-19T16:44:19.537Z,97395.97
2022-08-19T16:46:47.484Z,97400.81
2022-08-19T16:49:53.708Z,97392.59
2022-08-19T16:52:14.725Z,97396.25
2022-08-19T16:54:43.444Z,97410.41
2022-08-19T16:57:12.105Z,97411.84
2022-08-19T16:59:48.858Z,97406.31
2022-08-19T17:02:22.118Z,97424.03
2022-08-19T17:04:57.571Z,97423.38
2022-08-19T17:07:33.133Z,97424.16
2022-08-19T17:10:01.350Z,97437.81
2022-08-19T17:12:32.228Z,97450.91
2022-08-19T17:15:00.995Z,97450.16
2022-08-19T17:17:29.406Z,97456.56
2022-08-19T17:19:56.882Z,97460.59
2022-08-19T17:22:24.046Z,97456.47
2022-08-19T17:24:50.699Z,97458.56
2022-08-19T17:27:19.862Z,97469.09
2022-08-19T17:29:47.256Z,97469.91
2022-08-19T17:32:15.406Z,97475.09
2022-08-19T17:34:42.081Z,97480.09
2022-08-19T17:37:08.809Z,97482.47
2022-08-19T17:39:38.994Z,97477.63
2022-08-19T17:42:06.774Z,97477.88
2022-08-19T17:44:36.741Z,97485.13
2022-08-19T17:47:04.437Z,97483.38
2022-08-19T17:49:33.238Z,97467.38
2022-08-19T17:54:35.215Z,97452.00
2022-08-19T17:57:01.890Z,97435.31
2022-08-19T17:59:30.257Z,97437.13
2022-08-19T18:01:57.847Z,97437.03
2022-08-19T18:04:29.913Z,97444.16
2022-08-19T18:06:56.925Z,97439.22
2022-08-19T18:09:26.025Z,97438.03
2022-08-19T18:12:00.550Z,97436.19
2022-08-19T18:14:33.667Z,97439.03
2022-08-19T18:17:09.439Z,97445.81
2022-08-19T18:19:45.116Z,97449.34
2022-08-19T18:22:31.394Z,97456.47
2022-08-19T18:25:01.360Z,97473.44
2022-08-19T18:27:31.397Z,97468.50
2022-08-19T18:30:01.237Z,97487.22
2022-08-19T18:32:34.147Z,97489.09
2022-08-19T18:35:14.151Z,97482.25
2022-08-19T18:37:42.581Z,97472.31
2022-08-19T18:40:32.561Z,97483.06
2022-08-19T18:43:16.445Z,97491.88
2022-08-19T18:46:02.562Z,97496.50
2022-08-19T18:48:47.816Z,97496.53
2022-08-19T18:51:18.250Z,97498.84
2022-08-19T18:53:48.592Z,97501.78
2022-08-19T18:56:19.867Z,97501.34
2022-08-19T18:58:46.691Z,97496.00
2022-08-19T19:01:25.346Z,97482.88
2022-08-19T19:03:55.095Z,97479.47
2022-08-19T19:06:30.639Z,97472.34
2022-08-19T19:09:01.146Z,97468.16
2022-08-19T19:11:34.056Z,97471.38
2022-08-19T19:14:05.745Z,97476.41
2022-08-19T19:16:32.730Z,97473.00
2022-08-19T19:18:59.703Z,97478.03
2022-08-19T19:21:29.894Z,97479.53
2022-08-19T19:23:59.647Z,97488.56
2022-08-19T19:26:28.930Z,97491.84
2022-08-19T19:28:55.656Z,97484.25
2022-08-19T19:31:26.736Z,97499.50
2022-08-19T19:33:55.426Z,97500.66
2022-08-19T19:36:22.970Z,97496.16
2022-08-19T19:38:49.724Z,97510.25
2022-08-19T19:41:24.221Z,97513.34
2022-08-19T19:44:23.163Z,97519.81
2022-08-19T19:46:47.426Z,97519.94
2022-08-19T19:49:14.988Z,97534.19
2022-08-19T19:51:43.367Z,97517.69
2022-08-19T19:55:38.988Z,97527.88
2022-08-19T19:58:11.972Z,97517.50
2022-08-19T20:01:13.280Z,97529.19
2022-08-19T20:03:50.238Z,97531.59
2022-08-19T20:06:21.974Z,97531.25
2022-08-19T20:09:15.235Z,97523.66
2022-08-19T20:11:57.375Z,97532.84
2022-08-19T20:14:39.955Z,97522.03
2022-08-19T20:17:07.980Z,97517.19
2022-08-19T20:19:36.945Z,97507.78
2022-08-19T20:22:07.026Z,97507.28
2022-08-19T20:24:36.339Z,97501.28
2022-08-19T20:27:04.609Z,97497.91
2022-08-19T20:29:39.078Z,97495.63
2022-08-19T20:32:09.099Z,97493.66
2022-08-19T20:34:36.160Z,97495.94
2022-08-19T20:37:03.339Z,97494.13
2022-08-19T20:39:30.084Z,97503.31
2022-08-19T20:41:56.986Z,97498.28
2022-08-19T20:44:25.770Z,97500.53
2022-08-19T20:46:54.600Z,97495.84
2022-08-19T20:49:27.438Z,97486.91
2022-08-19T20:51:55.250Z,97503.91
2022-08-19T20:54:22.466Z,97501.75
2022-08-19T20:56:49.229Z,97498.06
2022-08-19T20:59:21.699Z,97494.81
2022-08-19T21:01:51.824Z,97510.47
2022-08-19T21:04:20.319Z,97503.19
2022-08-19T21:06:47.624Z,97492.16
2022-08-19T21:09:14.670Z,97499.28
2022-08-19T21:11:42.028Z,97505.72
2022-08-19T21:14:11.576Z,97501.81
2022-08-19T21:16:39.663Z,97507.59
2022-08-19T21:19:06.428Z,97503.06
2022-08-19T21:21:36.162Z,97505.63
2022-08-19T21:24:03.349Z,97506.59
2022-08-19T21:26:30.089Z,97515.94
2022-08-19T21:28:56.853Z,97525.38
2022-08-19T21:31:24.053Z,97544.06
2022-08-19T21:33:50.754Z,97538.41
2022-08-19T21:36:17.710Z,97534.16
2022-08-19T21:38:44.677Z,97532.69
2022-08-19T21:41:11.457Z,97539.09
2022-08-19T21:43:38.767Z,97547.31
2022-08-19T21:46:06.677Z,97554.88
2022-08-19T21:48:33.436Z,97568.09
2022-08-19T21:51:00.128Z,97578.03
2022-08-19T21:56:29.466Z,97572.47
2022-08-19T21:58:56.646Z,97573.91
2022-08-19T22:01:24.002Z,97551.34
2022-08-19T22:03:50.625Z,97539.91
2022-08-19T22:06:17.844Z,97538.75
2022-08-19T22:08:45.000Z,97543.94
2022-08-19T22:11:14.237Z,97552.19
2022-08-19T22:13:41.005Z,97551.16
2022-08-19T22:16:08.966Z,97555.03
2022-08-19T22:18:35.558Z,97560.94
2022-08-19T22:21:02.749Z,97568.94
2022-08-19T22:23:29.317Z,97566.63
2022-08-19T22:25:55.929Z,97563.69
2022-08-19T22:28:28.025Z,97563.50
2022-08-19T22:30:54.856Z,97559.78
2022-08-19T22:33:22.741Z,97558.97
2022-08-19T22:35:51.844Z,97559.78
2022-08-19T22:38:19.463Z,97548.31
2022-08-19T22:40:48.637Z,97552.69
2022-08-19T22:43:24.968Z,97546.16
2022-08-19T22:45:53.428Z,97539.56
2022-08-19T22:48:25.810Z,97536.00
2022-08-19T22:51:12.737Z,97528.09
2022-08-19T22:53:43.372Z,97524.25
2022-08-19T22:56:15.307Z,97526.69
2022-08-19T22:58:42.468Z,97528.09
2022-08-19T23:01:10.917Z,97523.66
2022-08-19T23:03:39.863Z,97523.22
2022-08-19T23:06:06.661Z,97525.94
2022-08-19T23:08:34.045Z,97521.53
2022-08-19T23:11:00.712Z,97522.06
2022-08-19T23:13:29.314Z,97526.19
2022-08-19T23:15:55.861Z,97525.13
2022-08-19T23:18:23.644Z,97537.09
2022-08-19T23:20:50.459Z,97534.34
2022-08-19T23:23:19.365Z,97531.31
2022-08-19T23:25:47.644Z,97538.22
2022-08-19T23:28:32.771Z,97542.22
2022-08-19T23:30:59.356Z,97547.25
2022-08-19T23:33:50.880Z,97570.06
2022-08-19T23:36:19.003Z,97572.63
2022-08-19T23:38:47.408Z,97578.44
2022-08-19T23:41:16.377Z,97576.22
2022-08-19T23:43:43.582Z,97582.41
2022-08-19T23:46:12.004Z,97589.09
2022-08-19T23:48:39.893Z,97593.25
2022-08-19T23:51:09.920Z,97602.06
2022-08-19T23:53:41.531Z,97596.09
2022-08-19T23:57:34.527Z,97608.34
